sensor_id;sensor_type;location;lat;lon;timestamp;temperature;humidity
15384;DHT22;7790;53.022;12.968;2023-02-26T00:00:10;20.60;41.40
15384;DHT22;7790;53.022;12.968;2023-02-26T00:04:14;20.70;41.30
15384;DHT22;7790;53.022;12.968;2023-02-26T00:08:15;20.70;41.20
15384;DHT22;7790;53.022;12.968;2023-02-26T00:12:16;20.70;41.10
15384;DHT22;7790;53.022;12.968;2023-02-26T00:16:28;20.80;41.10
15384;DHT22;7790;53.022;12.968;2023-02-26T00:20:30;20.80;41.00
15384;DHT22;7790;53.022;12.968;2023-02-26T00:24:31;20.80;40.90
15384;DHT22;7790;53.022;12.968;2023-02-26T00:28:32;20.80;40.90
15384;DHT22;7790;53.022;12.968;2023-02-26T00:32:34;20.80;40.70
15384;DHT22;7790;53.022;12.968;2023-02-26T00:36:49;20.90;40.60
15384;DHT22;7790;53.022;12.968;2023-02-26T00:40:52;20.80;40.00
15384;DHT22;7790;53.022;12.968;2023-02-26T00:44:54;20.00;39.20
15384;DHT22;7790;53.022;12.968;2023-02-26T00:49:15;20.40;39.80
15384;DHT22;7790;53.022;12.968;2023-02-26T00:53:23;20.60;39.90
15384;DHT22;7790;53.022;12.968;2023-02-26T00:57:25;20.70;39.90
15384;DHT22;7790;53.022;12.968;2023-02-26T01:01:27;20.70;39.90
15384;DHT22;7790;53.022;12.968;2023-02-26T01:05:28;20.70;39.90
15384;DHT22;7790;53.022;12.968;2023-02-26T01:09:36;20.70;39.90
15384;DHT22;7790;53.022;12.968;2023-02-26T01:13:39;20.70;40.00
15384;DHT22;7790;53.022;12.968;2023-02-26T01:21:54;20.70;40.00
15384;DHT22;7790;53.022;12.968;2023-02-26T01:26:11;20.70;40.00
15384;DHT22;7790;53.022;12.968;2023-02-26T01:30:17;20.70;40.00
15384;DHT22;7790;53.022;12.968;2023-02-26T01:34:43;20.70;40.00
15384;DHT22;7790;53.022;12.968;2023-02-26T01:43:38;20.70;40.00
15384;DHT22;7790;53.022;12.968;2023-02-26T01:48:06;20.70;40.00
15384;DHT22;7790;53.022;12.968;2023-02-26T01:56:56;20.70;39.90
15384;DHT22;7790;53.022;12.968;2023-02-26T02:00:59;20.70;39.90
15384;DHT22;7790;53.022;12.968;2023-02-26T02:05:08;20.70;39.90
15384;DHT22;7790;53.022;12.968;2023-02-26T02:09:11;20.70;39.90
15384;DHT22;7790;53.022;12.968;2023-02-26T02:13:24;20.70;39.90
15384;DHT22;7790;53.022;12.968;2023-02-26T02:18:20;20.70;39.90
15384;DHT22;7790;53.022;12.968;2023-02-26T02:26:24;20.70;39.90
15384;DHT22;7790;53.022;12.968;2023-02-26T02:30:56;20.70;39.90
15384;DHT22;7790;53.022;12.968;2023-02-26T02:35:19;20.70;39.90
15384;DHT22;7790;53.022;12.968;2023-02-26T02:39:32;20.60;39.90
15384;DHT22;7790;53.022;12.968;2023-02-26T02:43:36;20.60;39.90
15384;DHT22;7790;53.022;12.968;2023-02-26T02:47:41;20.60;39.90
15384;DHT22;7790;53.022;12.968;2023-02-26T02:51:54;20.60;40.40
15384;DHT22;7790;53.022;12.968;2023-02-26T03:00:10;20.60;39.90
15384;DHT22;7790;53.022;12.968;2023-02-26T03:04:14;20.60;39.80
15384;DHT22;7790;53.022;12.968;2023-02-26T03:08:19;20.60;39.80
15384;DHT22;7790;53.022;12.968;2023-02-26T03:12:23;20.60;39.80
15384;DHT22;7790;53.022;12.968;2023-02-26T03:21:33;20.60;39.80
15384;DHT22;7790;53.022;12.968;2023-02-26T03:30:00;20.70;39.70
15384;DHT22;7790;53.022;12.968;2023-02-26T03:34:17;20.70;39.70
15384;DHT22;7790;53.022;12.968;2023-02-26T03:38:44;20.70;39.60
15384;DHT22;7790;53.022;12.968;2023-02-26T03:42:54;20.70;39.60
15384;DHT22;7790;53.022;12.968;2023-02-26T03:47:01;20.70;39.60
15384;DHT22;7790;53.022;12.968;2023-02-26T03:51:10;20.70;39.60
15384;DHT22;7790;53.022;12.968;2023-02-26T04:00:26;20.70;39.60
15384;DHT22;7790;53.022;12.968;2023-02-26T04:04:51;20.70;39.70
15384;DHT22;7790;53.022;12.968;2023-02-26T04:08:54;20.70;39.60
15384;DHT22;7790;53.022;12.968;2023-02-26T04:12:58;20.70;39.50
15384;DHT22;7790;53.022;12.968;2023-02-26T04:16:59;20.60;39.60
15384;DHT22;7790;53.022;12.968;2023-02-26T04:21:00;20.60;39.50
15384;DHT22;7790;53.022;12.968;2023-02-26T04:25:01;20.60;39.60
15384;DHT22;7790;53.022;12.968;2023-02-26T04:29:02;20.70;39.50
15384;DHT22;7790;53.022;12.968;2023-02-26T04:33:04;20.60;39.50
15384;DHT22;7790;53.022;12.968;2023-02-26T04:37:05;20.60;39.50
15384;DHT22;7790;53.022;12.968;2023-02-26T04:41:06;20.60;39.50
15384;DHT22;7790;53.022;12.968;2023-02-26T04:45:07;20.60;39.40
15384;DHT22;7790;53.022;12.968;2023-02-26T04:49:11;20.60;39.40
15384;DHT22;7790;53.022;12.968;2023-02-26T04:53:15;20.60;39.40
15384;DHT22;7790;53.022;12.968;2023-02-26T04:57:17;20.60;39.40
15384;DHT22;7790;53.022;12.968;2023-02-26T05:01:18;20.60;39.40
15384;DHT22;7790;53.022;12.968;2023-02-26T05:05:19;20.60;39.40
15384;DHT22;7790;53.022;12.968;2023-02-26T05:09:20;20.60;39.30
15384;DHT22;7790;53.022;12.968;2023-02-26T05:13:21;20.60;39.30
15384;DHT22;7790;53.022;12.968;2023-02-26T05:17:22;20.60;39.30
15384;DHT22;7790;53.022;12.968;2023-02-26T05:21:23;20.60;39.30
15384;DHT22;7790;53.022;12.968;2023-02-26T05:25:24;20.60;39.30
15384;DHT22;7790;53.022;12.968;2023-02-26T05:29:25;20.60;39.30
15384;DHT22;7790;53.022;12.968;2023-02-26T05:33:26;20.60;39.20
15384;DHT22;7790;53.022;12.968;2023-02-26T05:37:27;20.60;39.20
15384;DHT22;7790;53.022;12.968;2023-02-26T05:41:29;20.60;39.20
15384;DHT22;7790;53.022;12.968;2023-02-26T05:45:30;20.60;39.20
15384;DHT22;7790;53.022;12.968;2023-02-26T05:49:31;20.60;39.20
15384;DHT22;7790;53.022;12.968;2023-02-26T05:53:32;20.60;39.20
15384;DHT22;7790;53.022;12.968;2023-02-26T05:57:33;20.60;39.10
15384;DHT22;7790;53.022;12.968;2023-02-26T06:01:34;20.60;39.20
15384;DHT22;7790;53.022;12.968;2023-02-26T06:05:36;20.60;39.20
15384;DHT22;7790;53.022;12.968;2023-02-26T06:09:37;20.60;39.10
15384;DHT22;7790;53.022;12.968;2023-02-26T06:13:39;20.70;39.20
15384;DHT22;7790;53.022;12.968;2023-02-26T06:17:40;20.70;39.10
15384;DHT22;7790;53.022;12.968;2023-02-26T06:21:41;20.70;39.10
15384;DHT22;7790;53.022;12.968;2023-02-26T06:25:41;20.70;39.10
15384;DHT22;7790;53.022;12.968;2023-02-26T06:29:42;20.70;39.10
15384;DHT22;7790;53.022;12.968;2023-02-26T06:33:43;20.60;39.00
15384;DHT22;7790;53.022;12.968;2023-02-26T06:37:47;20.60;39.00
15384;DHT22;7790;53.022;12.968;2023-02-26T06:41:48;20.30;36.60
15384;DHT22;7790;53.022;12.968;2023-02-26T06:45:49;19.70;37.00
15384;DHT22;7790;53.022;12.968;2023-02-26T06:49:50;20.10;37.70
15384;DHT22;7790;53.022;12.968;2023-02-26T06:53:51;20.30;37.80
15384;DHT22;7790;53.022;12.968;2023-02-26T06:57:53;20.40;37.70
15384;DHT22;7790;53.022;12.968;2023-02-26T07:01:54;20.50;38.30
15384;DHT22;7790;53.022;12.968;2023-02-26T07:05:55;20.60;37.70
15384;DHT22;7790;53.022;12.968;2023-02-26T07:09:56;20.70;37.80
15384;DHT22;7790;53.022;12.968;2023-02-26T07:13:56;20.70;37.70
15384;DHT22;7790;53.022;12.968;2023-02-26T07:17:58;20.70;37.80
15384;DHT22;7790;53.022;12.968;2023-02-26T07:21:59;20.70;37.80
15384;DHT22;7790;53.022;12.968;2023-02-26T07:26:01;20.70;37.80
15384;DHT22;7790;53.022;12.968;2023-02-26T07:30:02;20.70;37.80
15384;DHT22;7790;53.022;12.968;2023-02-26T07:34:03;20.70;38.40
15384;DHT22;7790;53.022;12.968;2023-02-26T07:38:04;20.70;37.90
15384;DHT22;7790;53.022;12.968;2023-02-26T07:42:05;20.70;38.00
15384;DHT22;7790;53.022;12.968;2023-02-26T07:46:07;20.70;38.00
15384;DHT22;7790;53.022;12.968;2023-02-26T07:50:09;20.70;38.10
15384;DHT22;7790;53.022;12.968;2023-02-26T07:54:13;20.70;38.10
15384;DHT22;7790;53.022;12.968;2023-02-26T07:58:14;20.70;38.20
15384;DHT22;7790;53.022;12.968;2023-02-26T08:02:15;20.70;38.10
15384;DHT22;7790;53.022;12.968;2023-02-26T08:06:16;20.80;38.10
15384;DHT22;7790;53.022;12.968;2023-02-26T08:10:17;20.70;38.10
15384;DHT22;7790;53.022;12.968;2023-02-26T08:14:18;20.80;38.10
15384;DHT22;7790;53.022;12.968;2023-02-26T08:18:19;20.70;38.50
15384;DHT22;7790;53.022;12.968;2023-02-26T08:22:20;20.80;38.50
15384;DHT22;7790;53.022;12.968;2023-02-26T08:26:23;20.80;38.50
15384;DHT22;7790;53.022;12.968;2023-02-26T08:30:24;20.90;38.50
15384;DHT22;7790;53.022;12.968;2023-02-26T08:34:25;20.90;38.50
15384;DHT22;7790;53.022;12.968;2023-02-26T08:38:26;21.00;38.60
15384;DHT22;7790;53.022;12.968;2023-02-26T08:42:27;21.00;38.90
15384;DHT22;7790;53.022;12.968;2023-02-26T08:46:28;21.10;39.10
15384;DHT22;7790;53.022;12.968;2023-02-26T08:50:29;21.10;39.40
15384;DHT22;7790;53.022;12.968;2023-02-26T08:54:30;21.20;39.50
15384;DHT22;7790;53.022;12.968;2023-02-26T08:58:32;21.20;39.70
15384;DHT22;7790;53.022;12.968;2023-02-26T09:02:33;21.20;39.70
15384;DHT22;7790;53.022;12.968;2023-02-26T09:06:34;21.20;39.90
15384;DHT22;7790;53.022;12.968;2023-02-26T09:10:35;21.20;39.90
15384;DHT22;7790;53.022;12.968;2023-02-26T09:14:36;21.20;40.00
15384;DHT22;7790;53.022;12.968;2023-02-26T09:18:37;21.20;40.00
15384;DHT22;7790;53.022;12.968;2023-02-26T09:22:38;21.20;40.00
15384;DHT22;7790;53.022;12.968;2023-02-26T09:26:39;21.10;40.10
15384;DHT22;7790;53.022;12.968;2023-02-26T09:30:40;21.10;40.30
15384;DHT22;7790;53.022;12.968;2023-02-26T09:34:41;21.10;40.20
15384;DHT22;7790;53.022;12.968;2023-02-26T09:38:42;20.80;39.00
15384;DHT22;7790;53.022;12.968;2023-02-26T09:47:23;20.50;38.40
15384;DHT22;7790;53.022;12.968;2023-02-26T09:51:26;20.50;38.30
15384;DHT22;7790;53.022;12.968;2023-02-26T09:56:07;20.50;38.10
15384;DHT22;7790;53.022;12.968;2023-02-26T10:00:41;20.50;38.10
15384;DHT22;7790;53.022;12.968;2023-02-26T10:09:28;20.50;38.10
15384;DHT22;7790;53.022;12.968;2023-02-26T10:13:35;20.50;38.10
15384;DHT22;7790;53.022;12.968;2023-02-26T10:26:20;20.50;38.30
15384;DHT22;7790;53.022;12.968;2023-02-26T10:34:38;21.00;38.20
15384;DHT22;7790;53.022;12.968;2023-02-26T10:38:46;21.00;38.30
15384;DHT22;7790;53.022;12.968;2023-02-26T10:43:19;21.20;38.10
15384;DHT22;7790;53.022;12.968;2023-02-26T10:47:49;21.20;38.00
15384;DHT22;7790;53.022;12.968;2023-02-26T10:51:53;21.20;37.90
15384;DHT22;7790;53.022;12.968;2023-02-26T10:56:10;21.10;37.60
15384;DHT22;7790;53.022;12.968;2023-02-26T11:00:18;21.10;37.90
15384;DHT22;7790;53.022;12.968;2023-02-26T11:04:25;21.00;38.40
15384;DHT22;7790;53.022;12.968;2023-02-26T11:08:29;21.10;38.60
15384;DHT22;7790;53.022;12.968;2023-02-26T11:12:31;21.10;38.60
15384;DHT22;7790;53.022;12.968;2023-02-26T11:16:33;21.10;38.80
15384;DHT22;7790;53.022;12.968;2023-02-26T11:20:40;21.00;38.60
15384;DHT22;7790;53.022;12.968;2023-02-26T11:24:47;20.80;38.30
15384;DHT22;7790;53.022;12.968;2023-02-26T11:28:49;20.70;38.20
15384;DHT22;7790;53.022;12.968;2023-02-26T11:32:56;20.60;38.30
15384;DHT22;7790;53.022;12.968;2023-02-26T11:36:59;20.60;38.30
15384;DHT22;7790;53.022;12.968;2023-02-26T11:41:01;20.60;38.30
15384;DHT22;7790;53.022;12.968;2023-02-26T11:45:04;20.50;38.10
15384;DHT22;7790;53.022;12.968;2023-02-26T11:49:09;20.50;38.20
15384;DHT22;7790;53.022;12.968;2023-02-26T11:57:32;20.50;38.10
15384;DHT22;7790;53.022;12.968;2023-02-26T12:01:35;20.40;38.10
15384;DHT22;7790;53.022;12.968;2023-02-26T12:05:36;20.30;38.20
15384;DHT22;7790;53.022;12.968;2023-02-26T12:09:37;20.20;38.20
15384;DHT22;7790;53.022;12.968;2023-02-26T12:43:47;20.10;38.10
15384;DHT22;7790;53.022;12.968;2023-02-26T12:52:14;20.20;38.10
15384;DHT22;7790;53.022;12.968;2023-02-26T13:01:13;20.30;38.10
15384;DHT22;7790;53.022;12.968;2023-02-26T13:18:41;20.80;39.20
15384;DHT22;7790;53.022;12.968;2023-02-26T13:22:50;20.40;38.80
15384;DHT22;7790;53.022;12.968;2023-02-26T13:26:53;20.20;39.20
15384;DHT22;7790;53.022;12.968;2023-02-26T13:30:55;20.10;39.20
15384;DHT22;7790;53.022;12.968;2023-02-26T13:35:24;20.20;39.40
15384;DHT22;7790;53.022;12.968;2023-02-26T13:48:12;20.60;40.10
15384;DHT22;7790;53.022;12.968;2023-02-26T13:52:28;20.70;40.10
15384;DHT22;7790;53.022;12.968;2023-02-26T14:00:45;20.80;39.80
15384;DHT22;7790;53.022;12.968;2023-02-26T14:04:57;20.80;39.80
15384;DHT22;7790;53.022;12.968;2023-02-26T14:09:03;20.80;39.70
15384;DHT22;7790;53.022;12.968;2023-02-26T14:13:17;21.00;40.00
15384;DHT22;7790;53.022;12.968;2023-02-26T14:17:47;21.10;40.10
15384;DHT22;7790;53.022;12.968;2023-02-26T14:22:01;21.10;40.10
15384;DHT22;7790;53.022;12.968;2023-02-26T14:26:11;21.10;40.10
15384;DHT22;7790;53.022;12.968;2023-02-26T14:30:32;21.00;40.20
15384;DHT22;7790;53.022;12.968;2023-02-26T14:34:45;21.00;40.30
15384;DHT22;7790;53.022;12.968;2023-02-26T14:38:47;21.00;40.40
15384;DHT22;7790;53.022;12.968;2023-02-26T14:42:58;20.80;39.90
15384;DHT22;7790;53.022;12.968;2023-02-26T14:46:59;20.70;40.20
15384;DHT22;7790;53.022;12.968;2023-02-26T15:24:57;20.30;38.90
15384;DHT22;7790;53.022;12.968;2023-02-26T15:29:00;20.10;38.80
15384;DHT22;7790;53.022;12.968;2023-02-26T15:33:06;20.20;38.90
15384;DHT22;7790;53.022;12.968;2023-02-26T15:37:20;20.10;38.90
15384;DHT22;7790;53.022;12.968;2023-02-26T15:41:23;20.00;38.90
15384;DHT22;7790;53.022;12.968;2023-02-26T15:45:27;19.90;39.10
15384;DHT22;7790;53.022;12.968;2023-02-26T15:49:40;19.80;39.10
15384;DHT22;7790;53.022;12.968;2023-02-26T15:53:47;19.70;39.20
15384;DHT22;7790;53.022;12.968;2023-02-26T15:57:49;19.70;39.20
15384;DHT22;7790;53.022;12.968;2023-02-26T16:01:50;19.60;39.20
15384;DHT22;7790;53.022;12.968;2023-02-26T16:05:54;19.60;39.20
15384;DHT22;7790;53.022;12.968;2023-02-26T16:09:55;19.60;39.20
15384;DHT22;7790;53.022;12.968;2023-02-26T16:13:56;19.60;39.10
15384;DHT22;7790;53.022;12.968;2023-02-26T16:18:00;19.80;38.90
15384;DHT22;7790;53.022;12.968;2023-02-26T16:22:13;20.00;38.90
15384;DHT22;7790;53.022;12.968;2023-02-26T16:26:21;20.10;38.70
15384;DHT22;7790;53.022;12.968;2023-02-26T16:30:24;20.30;38.70
15384;DHT22;7790;53.022;12.968;2023-02-26T16:34:42;20.40;38.60
15384;DHT22;7790;53.022;12.968;2023-02-26T16:43:01;20.40;38.60
15384;DHT22;7790;53.022;12.968;2023-02-26T16:47:02;20.30;38.80
15384;DHT22;7790;53.022;12.968;2023-02-26T16:51:19;20.30;38.70
15384;DHT22;7790;53.022;12.968;2023-02-26T16:55:21;20.30;38.80
15384;DHT22;7790;53.022;12.968;2023-02-26T16:59:28;20.30;38.90
15384;DHT22;7790;53.022;12.968;2023-02-26T17:03:29;20.30;39.00
15384;DHT22;7790;53.022;12.968;2023-02-26T17:07:33;20.40;38.70
15384;DHT22;7790;53.022;12.968;2023-02-26T17:11:38;20.50;38.40
15384;DHT22;7790;53.022;12.968;2023-02-26T17:15:40;20.80;38.30
15384;DHT22;7790;53.022;12.968;2023-02-26T17:19:41;20.90;38.30
15384;DHT22;7790;53.022;12.968;2023-02-26T17:23:42;20.90;38.30
15384;DHT22;7790;53.022;12.968;2023-02-26T17:27:43;21.00;38.40
15384;DHT22;7790;53.022;12.968;2023-02-26T17:31:44;21.00;38.40
15384;DHT22;7790;53.022;12.968;2023-02-26T17:35:46;21.00;38.40
15384;DHT22;7790;53.022;12.968;2023-02-26T17:39:48;21.00;38.90
15384;DHT22;7790;53.022;12.968;2023-02-26T17:43:49;21.00;38.70
15384;DHT22;7790;53.022;12.968;2023-02-26T17:47:50;21.00;38.80
15384;DHT22;7790;53.022;12.968;2023-02-26T17:51:50;20.90;38.60
15384;DHT22;7790;53.022;12.968;2023-02-26T17:55:53;20.70;39.00
15384;DHT22;7790;53.022;12.968;2023-02-26T17:59:56;20.80;39.90
15384;DHT22;7790;53.022;12.968;2023-02-26T18:03:57;20.80;40.20
15384;DHT22;7790;53.022;12.968;2023-02-26T18:08:00;20.70;40.50
15384;DHT22;7790;53.022;12.968;2023-02-26T18:12:01;20.70;40.40
15384;DHT22;7790;53.022;12.968;2023-02-26T18:16:02;20.60;40.40
15384;DHT22;7790;53.022;12.968;2023-02-26T18:20:04;20.50;40.50
15384;DHT22;7790;53.022;12.968;2023-02-26T18:24:07;20.50;40.60
15384;DHT22;7790;53.022;12.968;2023-02-26T18:28:22;20.50;40.30
15384;DHT22;7790;53.022;12.968;2023-02-26T18:32:24;20.60;40.30
15384;DHT22;7790;53.022;12.968;2023-02-26T18:36:30;20.60;39.60
15384;DHT22;7790;53.022;12.968;2023-02-26T18:40:35;20.80;39.70
15384;DHT22;7790;53.022;12.968;2023-02-26T18:44:35;20.60;39.20
15384;DHT22;7790;53.022;12.968;2023-02-26T18:48:36;20.50;39.40
15384;DHT22;7790;53.022;12.968;2023-02-26T18:52:37;20.50;39.50
15384;DHT22;7790;53.022;12.968;2023-02-26T18:56:38;20.40;39.30
15384;DHT22;7790;53.022;12.968;2023-02-26T19:00:39;20.40;39.50
15384;DHT22;7790;53.022;12.968;2023-02-26T19:04:40;20.40;39.40
15384;DHT22;7790;53.022;12.968;2023-02-26T19:08:41;20.40;39.40
15384;DHT22;7790;53.022;12.968;2023-02-26T19:12:42;20.40;39.30
15384;DHT22;7790;53.022;12.968;2023-02-26T19:16:43;20.40;39.30
15384;DHT22;7790;53.022;12.968;2023-02-26T19:20:44;20.30;39.40
15384;DHT22;7790;53.022;12.968;2023-02-26T19:24:45;20.30;39.50
15384;DHT22;7790;53.022;12.968;2023-02-26T19:28:46;20.20;39.30
15384;DHT22;7790;53.022;12.968;2023-02-26T19:32:47;20.20;39.40
15384;DHT22;7790;53.022;12.968;2023-02-26T19:36:48;20.20;39.30
15384;DHT22;7790;53.022;12.968;2023-02-26T19:40:49;20.10;39.20
15384;DHT22;7790;53.022;12.968;2023-02-26T19:44:50;20.20;39.20
15384;DHT22;7790;53.022;12.968;2023-02-26T19:48:51;20.30;38.90
15384;DHT22;7790;53.022;12.968;2023-02-26T19:52:52;20.30;38.80
15384;DHT22;7790;53.022;12.968;2023-02-26T19:56:54;20.40;38.80
15384;DHT22;7790;53.022;12.968;2023-02-26T20:00:57;20.50;38.60
15384;DHT22;7790;53.022;12.968;2023-02-26T20:04:58;20.40;38.90
15384;DHT22;7790;53.022;12.968;2023-02-26T20:08:59;20.40;38.70
15384;DHT22;7790;53.022;12.968;2023-02-26T20:13:00;20.40;38.80
15384;DHT22;7790;53.022;12.968;2023-02-26T20:17:00;20.50;38.70
15384;DHT22;7790;53.022;12.968;2023-02-26T20:21:06;20.40;38.80
15384;DHT22;7790;53.022;12.968;2023-02-26T20:25:08;20.40;38.90
15384;DHT22;7790;53.022;12.968;2023-02-26T20:29:09;20.30;38.70
15384;DHT22;7790;53.022;12.968;2023-02-26T20:33:10;20.40;38.50
15384;DHT22;7790;53.022;12.968;2023-02-26T20:37:11;20.60;38.30
15384;DHT22;7790;53.022;12.968;2023-02-26T20:41:12;20.60;37.90
15384;DHT22;7790;53.022;12.968;2023-02-26T20:45:12;20.60;37.90
15384;DHT22;7790;53.022;12.968;2023-02-26T20:49:13;20.60;38.00
15384;DHT22;7790;53.022;12.968;2023-02-26T20:53:14;20.50;38.20
15384;DHT22;7790;53.022;12.968;2023-02-26T20:57:15;20.50;38.10
15384;DHT22;7790;53.022;12.968;2023-02-26T21:01:16;20.60;38.00
15384;DHT22;7790;53.022;12.968;2023-02-26T21:05:17;20.70;37.90
15384;DHT22;7790;53.022;12.968;2023-02-26T21:09:18;20.70;37.80
15384;DHT22;7790;53.022;12.968;2023-02-26T21:13:19;20.70;37.70
15384;DHT22;7790;53.022;12.968;2023-02-26T21:17:22;20.70;37.70
15384;DHT22;7790;53.022;12.968;2023-02-26T21:21:22;20.80;37.70
15384;DHT22;7790;53.022;12.968;2023-02-26T21:25:23;20.70;37.70
15384;DHT22;7790;53.022;12.968;2023-02-26T21:29:24;20.70;37.60
15384;DHT22;7790;53.022;12.968;2023-02-26T21:33:25;20.80;37.60
15384;DHT22;7790;53.022;12.968;2023-02-26T21:37:26;20.80;37.50
15384;DHT22;7790;53.022;12.968;2023-02-26T21:41:27;20.80;37.60
15384;DHT22;7790;53.022;12.968;2023-02-26T21:45:28;20.80;37.50
15384;DHT22;7790;53.022;12.968;2023-02-26T21:49:29;20.80;37.40
15384;DHT22;7790;53.022;12.968;2023-02-26T21:53:31;20.80;37.50
15384;DHT22;7790;53.022;12.968;2023-02-26T21:57:32;20.70;37.40
15384;DHT22;7790;53.022;12.968;2023-02-26T22:01:33;20.60;37.60
15384;DHT22;7790;53.022;12.968;2023-02-26T22:05:34;20.60;37.70
15384;DHT22;7790;53.022;12.968;2023-02-26T22:09:35;20.50;37.70
15384;DHT22;7790;53.022;12.968;2023-02-26T22:13:36;20.50;37.70
15384;DHT22;7790;53.022;12.968;2023-02-26T22:17:36;20.50;37.70
15384;DHT22;7790;53.022;12.968;2023-02-26T22:21:37;20.60;37.50
15384;DHT22;7790;53.022;12.968;2023-02-26T22:25:39;20.70;37.40
15384;DHT22;7790;53.022;12.968;2023-02-26T22:29:39;20.70;37.30
15384;DHT22;7790;53.022;12.968;2023-02-26T22:33:40;20.70;37.30
15384;DHT22;7790;53.022;12.968;2023-02-26T22:37:42;20.70;37.30
15384;DHT22;7790;53.022;12.968;2023-02-26T22:41:43;20.80;37.30
15384;DHT22;7790;53.022;12.968;2023-02-26T22:45:45;20.80;37.20
15384;DHT22;7790;53.022;12.968;2023-02-26T22:49:45;20.80;37.20
15384;DHT22;7790;53.022;12.968;2023-02-26T22:53:46;20.80;37.10
15384;DHT22;7790;53.022;12.968;2023-02-26T22:57:47;20.80;37.00
15384;DHT22;7790;53.022;12.968;2023-02-26T23:01:48;20.80;37.00
15384;DHT22;7790;53.022;12.968;2023-02-26T23:05:49;20.80;37.00
15384;DHT22;7790;53.022;12.968;2023-02-26T23:09:49;20.70;37.00
15384;DHT22;7790;53.022;12.968;2023-02-26T23:13:50;20.70;37.00
15384;DHT22;7790;53.022;12.968;2023-02-26T23:17:51;20.60;37.60
15384;DHT22;7790;53.022;12.968;2023-02-26T23:21:52;20.60;37.30
15384;DHT22;7790;53.022;12.968;2023-02-26T23:25:53;20.50;37.40
15384;DHT22;7790;53.022;12.968;2023-02-26T23:29:54;20.50;37.40
15384;DHT22;7790;53.022;12.968;2023-02-26T23:33:55;20.50;37.40
15384;DHT22;7790;53.022;12.968;2023-02-26T23:37:56;20.50;37.40
15384;DHT22;7790;53.022;12.968;2023-02-26T23:41:57;20.60;37.00
15384;DHT22;7790;53.022;12.968;2023-02-26T23:45:58;20.70;37.00
15384;DHT22;7790;53.022;12.968;2023-02-26T23:49:58;20.70;37.00
15384;DHT22;7790;53.022;12.968;2023-02-26T23:53:59;20.70;36.90
15384;DHT22;7790;53.022;12.968;2023-02-26T23:58:00;20.80;36.90
